createdAt,value
2019-02-19T00:02:17.944Z,12.30
2019-02-19T00:04:45.368Z,11.07
2019-02-19T00:07:12.720Z,11.37
2019-02-19T00:09:40.178Z,9.10
2019-02-19T00:12:07.613Z,10.73
2019-02-19T00:14:35.063Z,10.23
2019-02-19T00:17:02.434Z,16.77
2019-02-19T00:19:29.878Z,17.80
2019-02-19T00:21:57.324Z,24.33
2019-02-19T00:24:24.701Z,24.77
2019-02-19T00:26:52.123Z,23.10
2019-02-19T00:29:19.544Z,52.77
2019-02-19T00:31:46.942Z,42.70
2019-02-19T00:34:14.367Z,40.23
2019-02-19T00:36:41.815Z,37.33
2019-02-19T00:39:09.239Z,39.90
2019-02-19T00:41:36.695Z,43.50
2019-02-19T00:44:04.134Z,41.03
2019-02-19T00:46:31.562Z,44.60
2019-02-19T00:48:59.012Z,50.67
2019-02-19T00:51:26.491Z,56.37
2019-02-19T00:53:54.018Z,74.17
2019-02-19T00:56:21.469Z,69.50
2019-02-19T00:58:48.893Z,84.60
2019-02-19T01:01:16.365Z,78.90
2019-02-19T01:03:43.720Z,77.63
2019-02-19T01:06:11.272Z,69.23
2019-02-19T01:08:38.683Z,62.13
2019-02-19T01:11:06.215Z,69.97
2019-02-19T01:13:33.663Z,62.87
2019-02-19T01:16:01.094Z,66.93
2019-02-19T01:18:28.514Z,62.97
2019-02-19T01:20:55.930Z,63.97
2019-02-19T01:23:23.396Z,73.03
2019-02-19T01:25:50.841Z,86.13
2019-02-19T01:28:18.251Z,46.37
2019-02-19T01:30:45.692Z,72.20
2019-02-19T01:33:13.096Z,61.40
2019-02-19T01:35:40.549Z,31.07
2019-02-19T01:38:08.061Z,29.47
2019-02-19T01:40:35.484Z,31.27
2019-02-19T01:43:02.919Z,36.33
2019-02-19T01:45:34.002Z,24.70
2019-02-19T01:47:59.729Z,17.17
2019-02-19T01:50:27.150Z,17.87
2019-02-19T01:52:54.670Z,16.30
2019-02-19T01:55:22.119Z,15.53
2019-02-19T01:57:49.550Z,12.83
2019-02-19T02:00:17.007Z,21.17
2019-02-19T02:02:44.396Z,19.77
2019-02-19T02:05:11.851Z,13.60
2019-02-19T02:07:39.318Z,18.87
2019-02-19T02:10:07.073Z,18.90
2019-02-19T02:12:34.496Z,17.13
2019-02-19T02:15:01.863Z,11.40
2019-02-19T02:17:29.274Z,11.23
2019-02-19T02:19:56.687Z,10.73
2019-02-19T02:22:24.047Z,11.27
2019-02-19T02:24:51.502Z,11.07
2019-02-19T02:27:19.039Z,11.03
2019-02-19T02:29:46.478Z,10.00
2019-02-19T02:32:13.940Z,11.10
2019-02-19T02:34:41.297Z,10.87
2019-02-19T02:37:08.728Z,10.50
2019-02-19T02:39:36.226Z,10.67
2019-02-19T02:42:03.660Z,9.40
2019-02-19T02:44:31.068Z,9.80
2019-02-19T02:46:58.511Z,10.37
2019-02-19T02:49:25.943Z,10.87
2019-02-19T02:51:53.405Z,10.27
2019-02-19T02:54:20.963Z,11.60
2019-02-19T02:56:48.436Z,10.97
2019-02-19T02:59:15.862Z,13.13
2019-02-19T03:01:43.250Z,21.17
2019-02-19T03:04:10.693Z,19.77
2019-02-19T03:06:42.916Z,16.07
2019-02-19T03:09:10.306Z,30.20
2019-02-19T03:11:37.743Z,33.90
2019-02-19T03:14:05.149Z,37.43
2019-02-19T03:16:32.507Z,41.47
2019-02-19T03:18:59.950Z,37.63
2019-02-19T03:21:27.359Z,39.70
2019-02-19T03:23:54.738Z,39.47
2019-02-19T03:26:22.140Z,42.03
2019-02-19T03:28:49.566Z,38.27
2019-02-19T03:31:17.003Z,38.87
2019-02-19T03:33:44.369Z,37.93
2019-02-19T03:36:11.789Z,37.80
2019-02-19T03:38:39.240Z,34.83
2019-02-19T03:41:06.701Z,40.57
2019-02-19T03:43:34.059Z,40.47
2019-02-19T03:46:01.495Z,39.33
2019-02-19T03:48:28.927Z,38.73
2019-02-19T03:50:56.364Z,38.90
2019-02-19T03:53:23.710Z,37.70
2019-02-19T03:55:51.300Z,36.47
2019-02-19T03:58:18.791Z,34.53
2019-02-19T04:00:46.415Z,35.23
2019-02-19T04:03:13.895Z,34.10
2019-02-19T04:05:41.341Z,36.00
2019-02-19T04:08:08.768Z,36.23
2019-02-19T04:10:36.207Z,30.70
2019-02-19T04:13:03.789Z,34.40
2019-02-19T04:15:31.408Z,26.50
2019-02-19T04:17:58.784Z,26.80
2019-02-19T04:20:26.246Z,29.70
2019-02-19T04:22:53.738Z,35.07
2019-02-19T04:25:21.098Z,32.37
2019-02-19T04:27:48.665Z,35.80
2019-02-19T04:30:16.201Z,36.00
2019-02-19T04:32:43.677Z,37.87
2019-02-19T04:35:11.322Z,36.37
2019-02-19T04:37:38.811Z,36.57
2019-02-19T04:40:07.257Z,34.60
2019-02-19T04:42:34.688Z,33.20
2019-02-19T04:45:02.198Z,35.27
2019-02-19T04:47:29.678Z,34.27
2019-02-19T04:49:57.138Z,34.07
2019-02-19T04:52:24.518Z,29.47
2019-02-19T04:54:51.977Z,30.90
2019-02-19T04:57:19.532Z,30.43
2019-02-19T04:59:46.981Z,25.47
2019-02-19T05:02:14.358Z,28.07
2019-02-19T05:04:41.769Z,27.53
2019-02-19T05:07:09.235Z,30.17
2019-02-19T05:09:36.661Z,32.27
2019-02-19T05:12:04.101Z,35.80
2019-02-19T05:14:31.520Z,34.40
2019-02-19T05:16:59.049Z,37.30
2019-02-19T05:19:26.493Z,35.30
2019-02-19T05:21:53.847Z,34.10
2019-02-19T05:24:21.327Z,33.90
2019-02-19T05:26:48.795Z,32.10
2019-02-19T05:29:16.235Z,34.00
2019-02-19T05:31:43.680Z,39.57
2019-02-19T05:34:11.048Z,38.57
2019-02-19T05:36:38.492Z,35.23
2019-02-19T05:39:06.101Z,37.80
2019-02-19T05:41:33.475Z,35.37
2019-02-19T05:44:00.961Z,33.57
2019-02-19T05:46:28.328Z,35.37
2019-02-19T05:48:55.683Z,35.07
2019-02-19T05:51:23.145Z,34.13
2019-02-19T05:53:50.618Z,37.00
2019-02-19T05:56:18.020Z,36.57
2019-02-19T05:58:46.056Z,38.57
2019-02-19T06:01:13.473Z,34.47
2019-02-19T06:03:40.931Z,37.30
2019-02-19T06:06:08.348Z,33.30
2019-02-19T06:08:35.803Z,36.63
2019-02-19T06:11:03.243Z,36.07
2019-02-19T06:13:30.929Z,32.17
2019-02-19T06:15:58.290Z,33.93
2019-02-19T06:18:25.742Z,34.57
2019-02-19T06:20:53.169Z,33.73
2019-02-19T06:23:20.546Z,36.57
2019-02-19T06:25:48.002Z,38.37
2019-02-19T06:28:15.518Z,35.20
2019-02-19T06:30:42.900Z,38.40
2019-02-19T06:33:10.336Z,38.20
2019-02-19T06:35:37.775Z,42.60
2019-02-19T06:38:05.262Z,47.00
2019-02-19T06:40:32.849Z,47.00
2019-02-19T06:43:00.403Z,44.90
2019-02-19T06:45:27.767Z,49.57
2019-02-19T06:47:55.218Z,44.33
2019-02-19T06:50:22.664Z,40.43
2019-02-19T06:52:50.050Z,36.63
2019-02-19T06:55:17.586Z,41.03
2019-02-19T06:57:45.044Z,42.30
2019-02-19T07:00:12.784Z,44.53
2019-02-19T07:03:02.703Z,40.60
2019-02-19T07:05:30.162Z,44.07
2019-02-19T07:07:57.610Z,47.07
2019-02-19T07:10:25.093Z,43.93
2019-02-19T07:12:52.508Z,44.90
2019-02-19T07:15:20.074Z,46.17
2019-02-19T07:17:47.496Z,48.13
2019-02-19T07:20:14.988Z,47.20
2019-02-19T07:22:42.477Z,43.27
2019-02-19T07:25:10.128Z,42.73
2019-02-19T07:27:37.574Z,44.47
2019-02-19T07:30:05.454Z,43.87
2019-02-19T07:32:32.886Z,37.33
2019-02-19T07:35:00.308Z,39.37
2019-02-19T07:37:27.844Z,41.33
2019-02-19T07:39:55.301Z,38.27
2019-02-19T07:42:23.202Z,37.13
2019-02-19T07:44:50.650Z,42.57
2019-02-19T07:47:24.468Z,41.90
2019-02-19T07:49:47.457Z,42.67
2019-02-19T07:52:14.938Z,43.07
2019-02-19T07:54:42.324Z,45.80
2019-02-19T07:57:09.762Z,49.70
2019-02-19T07:59:37.441Z,48.37
2019-02-19T08:02:04.961Z,47.57
2019-02-19T08:04:32.500Z,45.93
2019-02-19T08:06:59.944Z,44.33
2019-02-19T08:09:27.311Z,47.33
2019-02-19T08:11:54.756Z,47.67
2019-02-19T08:14:22.231Z,47.53
2019-02-19T08:16:49.658Z,45.90
2019-02-19T08:19:17.119Z,51.00
2019-02-19T08:21:44.554Z,46.13
2019-02-19T08:24:13.387Z,44.00
2019-02-19T08:26:40.832Z,42.63
2019-02-19T08:29:13.711Z,40.30
2019-02-19T08:31:37.913Z,37.63
2019-02-19T08:34:05.374Z,39.27
2019-02-19T08:36:32.794Z,38.70
2019-02-19T08:39:00.757Z,36.80
2019-02-19T08:41:28.176Z,36.00
2019-02-19T08:43:55.694Z,38.03
2019-02-19T08:46:23.112Z,36.50
2019-02-19T08:48:50.607Z,36.47
2019-02-19T08:51:18.011Z,35.00
2019-02-19T08:53:45.525Z,37.03
2019-02-19T08:56:12.989Z,38.50
2019-02-19T08:58:40.437Z,38.07
2019-02-19T09:01:07.813Z,38.07
2019-02-19T09:03:35.384Z,42.07
2019-02-19T09:06:02.938Z,44.87
2019-02-19T09:08:30.364Z,38.03
2019-02-19T09:10:57.815Z,37.57
2019-02-19T09:13:25.329Z,35.50
2019-02-19T09:15:52.834Z,37.63
2019-02-19T09:18:20.234Z,36.73
2019-02-19T09:20:47.721Z,34.37
2019-02-19T09:23:15.194Z,36.00
2019-02-19T09:25:42.661Z,29.20
2019-02-19T09:28:10.100Z,30.90
2019-02-19T09:30:37.472Z,30.83
2019-02-19T09:33:04.879Z,33.20
2019-02-19T09:35:32.313Z,34.27
2019-02-19T09:37:59.691Z,24.87
2019-02-19T09:40:27.157Z,26.93
2019-02-19T09:42:54.678Z,30.27
2019-02-19T09:45:22.289Z,34.03
2019-02-19T09:47:49.790Z,30.87
2019-02-19T09:50:17.225Z,29.67
2019-02-19T09:52:44.657Z,28.53
2019-02-19T09:55:12.116Z,31.43
2019-02-19T09:57:39.584Z,23.53
2019-02-19T10:00:09.340Z,27.40
2019-02-19T10:02:36.797Z,26.83
2019-02-19T10:05:04.997Z,27.60
2019-02-19T10:07:32.440Z,25.63
2019-02-19T10:10:00.250Z,24.33
2019-02-19T10:12:27.755Z,28.60
2019-02-19T10:14:55.241Z,25.73
2019-02-19T10:17:22.670Z,23.03
2019-02-19T10:19:50.121Z,27.10
2019-02-19T10:22:17.505Z,24.67
2019-02-19T10:24:44.984Z,30.77
2019-02-19T10:27:12.378Z,28.50
2019-02-19T10:29:39.862Z,26.73
2019-02-19T10:32:07.311Z,25.57
2019-02-19T10:34:34.716Z,24.00
2019-02-19T10:37:02.189Z,25.83
2019-02-19T10:39:29.705Z,24.10
2019-02-19T10:41:57.352Z,24.67
2019-02-19T10:44:24.858Z,22.77
2019-02-19T10:46:52.439Z,22.90
2019-02-19T10:49:19.846Z,21.37
2019-02-19T10:51:47.324Z,20.47
2019-02-19T10:54:14.784Z,20.07
2019-02-19T10:56:42.290Z,20.47
2019-02-19T10:59:09.677Z,17.03
2019-02-19T11:01:37.262Z,8.87
2019-02-19T11:04:04.699Z,15.07
2019-02-19T11:06:32.218Z,12.30
2019-02-19T11:08:59.692Z,12.40
2019-02-19T11:11:27.125Z,13.57
2019-02-19T11:13:54.553Z,10.80
2019-02-19T11:16:21.993Z,11.77
2019-02-19T11:18:49.435Z,12.47
2019-02-19T11:21:19.535Z,12.50
2019-02-19T11:23:46.217Z,12.90
2019-02-19T11:26:13.690Z,12.07
2019-02-19T11:28:41.264Z,12.70
2019-02-19T11:31:08.741Z,11.70
2019-02-19T11:33:36.261Z,10.43
2019-02-19T11:36:03.766Z,11.23
2019-02-19T11:38:31.191Z,10.00
2019-02-19T11:40:58.704Z,9.93
2019-02-19T11:43:26.133Z,11.40
2019-02-19T11:45:53.605Z,10.17
2019-02-19T11:48:21.110Z,10.10
2019-02-19T11:50:48.596Z,11.43
2019-02-19T11:53:16.039Z,10.50
2019-02-19T11:55:43.481Z,11.60
2019-02-19T11:58:10.893Z,9.87
2019-02-19T12:00:39.839Z,10.20
2019-02-19T12:03:07.285Z,10.93
2019-02-19T12:05:34.733Z,10.03
2019-02-19T12:08:02.156Z,11.20
2019-02-19T12:10:29.657Z,11.53
2019-02-19T12:12:57.057Z,12.27
2019-02-19T12:15:24.537Z,12.53
2019-02-19T12:17:52.030Z,12.43
2019-02-19T12:20:19.477Z,13.93
2019-02-19T12:22:46.893Z,15.20
2019-02-19T12:25:14.346Z,13.40
2019-02-19T12:27:41.838Z,13.17
2019-02-19T12:30:11.047Z,13.93
2019-02-19T12:32:38.588Z,13.40
2019-02-19T12:35:07.147Z,13.63
2019-02-19T12:37:34.554Z,12.67
2019-02-19T12:40:02.051Z,11.17
2019-02-19T12:42:29.592Z,11.83
2019-02-19T12:44:57.067Z,10.63
2019-02-19T12:47:24.567Z,10.57
2019-02-19T12:49:52.199Z,11.10
2019-02-19T12:52:19.805Z,11.70
2019-02-19T12:54:47.390Z,11.70
2019-02-19T12:57:14.806Z,13.90
2019-02-19T12:59:42.380Z,9.97
2019-02-19T13:02:09.838Z,10.73
2019-02-19T13:04:37.435Z,10.30
2019-02-19T13:07:04.953Z,9.73
2019-02-19T13:09:32.406Z,10.47
2019-02-19T13:11:59.980Z,7.80
2019-02-19T13:14:27.498Z,7.37
2019-02-19T13:16:54.973Z,8.03
2019-02-19T13:19:22.549Z,8.70
2019-02-19T13:21:49.977Z,7.13
2019-02-19T13:24:17.427Z,7.80
2019-02-19T13:26:45.054Z,6.83
2019-02-19T13:29:12.593Z,5.23
2019-02-19T13:31:40.172Z,7.30
2019-02-19T13:34:07.611Z,8.40
2019-02-19T13:36:35.157Z,9.30
2019-02-19T13:39:04.306Z,8.47
2019-02-19T13:41:31.795Z,9.90
2019-02-19T13:43:59.483Z,9.13
2019-02-19T13:46:27.043Z,9.50
2019-02-19T13:48:54.508Z,9.70
2019-02-19T13:51:22.041Z,7.50
2019-02-19T13:54:12.024Z,8.43
2019-02-19T13:56:39.536Z,7.30
2019-02-19T13:59:06.957Z,9.23
2019-02-19T14:01:34.488Z,9.13
2019-02-19T14:04:01.941Z,7.87
2019-02-19T14:06:29.497Z,8.50
2019-02-19T14:08:56.961Z,8.53
2019-02-19T14:11:24.514Z,9.27
2019-02-19T14:14:13.306Z,8.47
2019-02-19T14:16:52.100Z,8.77
2019-02-19T14:19:54.658Z,8.67
2019-02-19T14:22:39.956Z,7.00
2019-02-19T14:25:36.624Z,8.63
2019-02-19T14:28:23.731Z,10.20
2019-02-19T14:31:09.514Z,9.13
2019-02-19T14:34:02.452Z,9.93
2019-02-19T14:36:47.489Z,8.90
2019-02-19T14:39:37.441Z,10.00
2019-02-19T14:42:42.609Z,9.97
2019-02-19T14:45:17.816Z,10.00
2019-02-19T14:48:03.447Z,9.33
2019-02-19T14:50:44.382Z,8.10
2019-02-19T14:53:46.588Z,12.47
2019-02-19T14:56:32.362Z,9.20
2019-02-19T14:59:22.197Z,9.17
2019-02-19T15:02:12.346Z,9.20
2019-02-19T15:05:02.386Z,9.63
2019-02-19T15:08:07.728Z,9.40
2019-02-19T15:10:57.316Z,7.93
2019-02-19T15:13:43.046Z,10.43
2019-02-19T15:16:36.057Z,9.93
2019-02-19T15:19:21.733Z,10.20
2019-02-19T15:22:06.464Z,9.60
2019-02-19T15:24:56.127Z,9.80
2019-02-19T15:27:36.953Z,10.00
2019-02-19T15:30:43.014Z,11.17
2019-02-19T15:33:28.342Z,12.47
2019-02-19T15:36:30.429Z,12.23
2019-02-19T15:39:29.284Z,15.83
2019-02-19T15:42:16.244Z,12.40
2019-02-19T15:44:52.772Z,13.20
2019-02-19T15:47:55.119Z,14.00
2019-02-19T15:50:40.409Z,15.87
2019-02-19T15:53:33.358Z,17.60
2019-02-19T15:56:17.416Z,19.97
2019-02-19T15:59:01.929Z,25.73
2019-02-19T16:01:43.245Z,17.77
2019-02-19T16:04:32.714Z,14.83
2019-02-19T16:07:22.205Z,14.67
2019-02-19T16:10:15.272Z,16.20
2019-02-19T16:13:05.050Z,15.27
2019-02-19T16:15:50.702Z,14.50
2019-02-19T16:18:44.027Z,14.83
2019-02-19T16:21:30.980Z,18.73
2019-02-19T16:24:20.716Z,16.97
2019-02-19T16:26:54.394Z,16.47
2019-02-19T16:29:43.390Z,16.67
2019-02-19T16:32:30.399Z,17.50
2019-02-19T16:35:12.174Z,16.10
2019-02-19T16:37:44.739Z,13.73
2019-02-19T16:40:30.326Z,12.87
2019-02-19T16:43:20.812Z,13.53
2019-02-19T16:46:16.826Z,11.50
2019-02-19T16:49:03.808Z,12.03
2019-02-19T16:51:53.797Z,12.40
2019-02-19T16:54:34.819Z,10.73
2019-02-19T16:57:22.105Z,11.77
2019-02-19T17:00:06.380Z,10.73
2019-02-19T17:02:56.167Z,9.20
2019-02-19T17:05:58.947Z,9.90
2019-02-19T17:08:44.898Z,11.03
2019-02-19T17:11:41.029Z,11.40
2019-02-19T17:14:32.949Z,9.77
2019-02-19T17:17:07.780Z,10.40
2019-02-19T17:19:57.774Z,11.53
2019-02-19T17:22:40.208Z,21.80
2019-02-19T17:25:28.783Z,19.87
2019-02-19T17:28:27.815Z,16.70
2019-02-19T17:31:20.940Z,21.33
2019-02-19T17:34:08.753Z,21.93
2019-02-19T17:36:51.616Z,18.70
2019-02-19T17:39:38.013Z,20.20
2019-02-19T17:42:24.846Z,19.27
2019-02-19T17:45:27.342Z,20.03
2019-02-19T17:48:26.424Z,19.47
2019-02-19T17:51:16.119Z,20.40
2019-02-19T17:54:03.083Z,23.47
2019-02-19T17:56:53.929Z,26.43
2019-02-19T17:59:43.694Z,26.23
2019-02-19T18:02:27.404Z,29.43
2019-02-19T18:05:13.349Z,25.40
2019-02-19T18:08:02.678Z,25.63
2019-02-19T18:10:46.015Z,26.43
2019-02-19T18:13:21.113Z,27.87
2019-02-19T18:16:17.042Z,29.73
2019-02-19T18:18:51.232Z,28.00
2019-02-19T18:21:19.370Z,27.30
2019-02-19T18:23:46.824Z,24.37
2019-02-19T18:26:14.321Z,23.93
2019-02-19T18:28:42.042Z,27.07
2019-02-19T18:31:10.459Z,25.37
2019-02-19T18:33:37.905Z,24.10
2019-02-19T18:36:05.300Z,23.00
2019-02-19T18:38:32.734Z,19.27
2019-02-19T18:41:00.192Z,19.67
2019-02-19T18:43:27.854Z,18.33
2019-02-19T18:45:55.363Z,19.77
2019-02-19T18:48:22.876Z,20.13
2019-02-19T18:50:58.112Z,20.60
2019-02-19T18:53:19.935Z,18.73
2019-02-19T18:55:48.060Z,15.87
2019-02-19T18:58:16.586Z,20.00
2019-02-19T19:00:44.829Z,21.63
2019-02-19T19:03:13.647Z,21.17
2019-02-19T19:05:41.088Z,23.03
2019-02-19T19:08:11.509Z,22.67
2019-02-19T19:10:39.167Z,19.43
2019-02-19T19:13:06.725Z,22.47
2019-02-19T19:15:34.464Z,22.00
2019-02-19T19:18:01.957Z,22.77
2019-02-19T19:20:29.816Z,22.03
2019-02-19T19:22:57.318Z,23.30
2019-02-19T19:25:24.874Z,22.87
2019-02-19T19:27:52.347Z,23.57
2019-02-19T19:30:19.771Z,22.47
2019-02-19T19:32:47.291Z,20.93
2019-02-19T19:35:16.111Z,20.03
2019-02-19T19:37:43.692Z,20.23
2019-02-19T19:40:11.172Z,21.93
2019-02-19T19:42:39.738Z,20.13
2019-02-19T19:45:07.362Z,21.43
2019-02-19T19:47:34.873Z,17.63
2019-02-19T19:50:03.326Z,19.77
2019-02-19T19:52:31.150Z,20.53
2019-02-19T19:55:00.285Z,20.40
2019-02-19T19:57:27.988Z,19.53
2019-02-19T19:59:55.891Z,19.47
2019-02-19T20:02:23.614Z,19.33
2019-02-19T20:04:51.131Z,19.40
2019-02-19T20:07:18.602Z,19.07
2019-02-19T20:09:46.191Z,20.53
2019-02-19T20:12:14.150Z,16.60
2019-02-19T20:14:41.685Z,18.63
2019-02-19T20:17:09.154Z,17.67
2019-02-19T20:19:36.770Z,17.20
2019-02-19T20:22:04.609Z,18.60
2019-02-19T20:24:32.074Z,18.33
2019-02-19T20:26:59.528Z,16.80
2019-02-19T20:29:26.997Z,18.63
2019-02-19T20:31:54.420Z,18.90
2019-02-19T20:34:21.918Z,17.87
2019-02-19T20:36:49.487Z,18.43
2019-02-19T20:39:17.046Z,17.03
2019-02-19T20:41:44.439Z,17.43
2019-02-19T20:44:11.940Z,17.33
2019-02-19T20:46:39.471Z,16.30
2019-02-19T20:49:06.892Z,16.50
2019-02-19T20:51:36.616Z,19.17
2019-02-19T20:54:05.431Z,16.67
2019-02-19T20:56:33.018Z,17.20
2019-02-19T20:59:00.495Z,18.83
2019-02-19T21:01:27.898Z,17.77
2019-02-19T21:03:55.519Z,17.23
2019-02-19T21:06:23.130Z,17.23
2019-02-19T21:08:50.508Z,15.83
2019-02-19T21:11:18.021Z,17.00
2019-02-19T21:13:45.513Z,15.10
2019-02-19T21:16:13.043Z,15.53
2019-02-19T21:18:40.540Z,15.20
2019-02-19T21:21:08.027Z,16.30
2019-02-19T21:23:35.479Z,12.77
2019-02-19T21:26:03.170Z,15.37
2019-02-19T21:28:30.605Z,14.27
2019-02-19T21:30:58.156Z,14.43
2019-02-19T21:33:25.654Z,15.57
2019-02-19T21:35:57.606Z,16.03
2019-02-19T21:38:22.597Z,14.23
2019-02-19T21:40:50.037Z,16.93
2019-02-19T21:43:17.561Z,16.07
2019-02-19T21:45:45.095Z,17.47
2019-02-19T21:48:12.498Z,17.00
2019-02-19T21:50:39.942Z,18.07
2019-02-19T21:53:07.418Z,18.63
2019-02-19T21:55:34.956Z,18.40
2019-02-19T21:58:02.394Z,20.00
2019-02-19T22:00:29.883Z,20.30
2019-02-19T22:02:57.384Z,19.93
2019-02-19T22:05:26.806Z,19.73
2019-02-19T22:07:54.245Z,21.03
2019-02-19T22:10:21.732Z,20.17
2019-02-19T22:12:49.257Z,21.03
2019-02-19T22:15:16.704Z,20.47
2019-02-19T22:17:44.288Z,19.63
2019-02-19T22:20:28.060Z,21.30
2019-02-19T22:22:55.538Z,20.63
2019-02-19T22:25:23.000Z,22.30
2019-02-19T22:27:50.438Z,21.50
2019-02-19T22:30:17.914Z,21.47
2019-02-19T22:32:45.446Z,21.10
2019-02-19T22:35:12.936Z,20.83
2019-02-19T22:37:40.459Z,23.03
2019-02-19T22:40:08.100Z,23.53
2019-02-19T22:42:35.600Z,20.83
2019-02-19T22:45:03.336Z,23.93
2019-02-19T22:47:30.785Z,23.37
2019-02-19T22:49:58.335Z,22.37
2019-02-19T22:52:25.763Z,23.50
2019-02-19T22:55:11.666Z,22.60
2019-02-19T22:57:39.392Z,25.97
2019-02-19T23:00:10.794Z,22.23
2019-02-19T23:02:38.251Z,23.87
2019-02-19T23:05:05.967Z,21.10
2019-02-19T23:07:33.596Z,23.77
2019-02-19T23:10:01.135Z,21.83
2019-02-19T23:12:28.618Z,21.20
2019-02-19T23:14:56.037Z,21.60
2019-02-19T23:17:23.460Z,22.57
2019-02-19T23:19:50.945Z,22.83
2019-02-19T23:22:21.530Z,21.90
2019-02-19T23:24:47.799Z,21.97
2019-02-19T23:27:15.301Z,21.20
2019-02-19T23:29:42.784Z,21.70
2019-02-19T23:32:10.295Z,17.87
2019-02-19T23:34:37.889Z,16.87
2019-02-19T23:37:17.788Z,17.27
2019-02-19T23:39:45.391Z,14.77
2019-02-19T23:42:12.934Z,13.03
2019-02-19T23:44:40.403Z,14.47
2019-02-19T23:47:07.918Z,15.83
2019-02-19T23:49:35.410Z,13.70
2019-02-19T23:52:02.882Z,14.50
2019-02-19T23:54:30.427Z,15.17
2019-02-19T23:56:58.004Z,14.03
2019-02-19T23:59:25.415Z,13.37
